createdAt,value
2022-08-28T00:01:51.053Z,20.73
2022-08-28T00:11:52.662Z,23.35
2022-08-28T00:21:54.197Z,27.30
2022-08-28T00:31:56.214Z,23.60
2022-08-28T00:41:58.235Z,21.33
2022-08-28T00:52:05.215Z,22.00
2022-08-28T01:02:07.598Z,20.55
2022-08-28T01:12:15.576Z,21.13
2022-08-28T01:22:29.343Z,21.37
2022-08-28T01:32:42.368Z,21.33
2022-08-28T01:42:44.694Z,22.47
2022-08-28T01:52:46.245Z,22.42
2022-08-28T02:02:48.011Z,19.10
2022-08-28T02:12:49.590Z,19.83
2022-08-28T02:22:51.625Z,20.17
2022-08-28T02:32:53.482Z,18.40
2022-08-28T02:42:55.152Z,18.25
2022-08-28T02:52:57.616Z,22.63
2022-08-28T03:02:59.414Z,19.87
2022-08-28T03:13:00.931Z,20.00
2022-08-28T03:23:02.579Z,21.00
2022-08-28T03:33:04.148Z,16.30
2022-08-28T03:43:06.945Z,14.30
2022-08-28T03:53:08.655Z,12.27
2022-08-28T04:03:10.324Z,13.70
2022-08-28T04:13:13.243Z,11.03
2022-08-28T04:23:14.769Z,12.80
2022-08-28T04:33:16.367Z,14.23
2022-08-28T04:43:17.940Z,13.60
2022-08-28T04:53:20.677Z,12.00
2022-08-28T05:03:23.243Z,14.50
2022-08-28T05:13:25.121Z,11.48
2022-08-28T05:23:26.665Z,12.63
2022-08-28T05:33:28.209Z,10.20
2022-08-28T05:43:30.587Z,10.97
2022-08-28T05:53:34.361Z,11.10
2022-08-28T06:03:36.511Z,14.30
2022-08-28T06:13:38.253Z,11.73
2022-08-28T06:23:40.423Z,11.80
2022-08-28T06:33:41.979Z,11.70
2022-08-28T06:43:43.518Z,11.87
2022-08-28T06:53:46.196Z,8.48
2022-08-28T07:03:49.258Z,12.50
2022-08-28T07:13:52.036Z,12.93
2022-08-28T07:23:54.917Z,11.07
2022-08-28T07:33:58.716Z,15.13
2022-08-28T07:44:00.251Z,19.60
2022-08-28T07:54:01.777Z,24.67
2022-08-28T08:04:05.117Z,25.40
2022-08-28T08:14:06.856Z,24.27
2022-08-28T08:24:08.469Z,25.87
2022-08-28T08:34:11.035Z,32.15
2022-08-28T08:44:33.948Z,27.97
2022-08-28T08:54:41.077Z,23.90
2022-08-28T09:05:13.193Z,23.70
2022-08-28T09:15:22.513Z,23.73
2022-08-28T09:26:01.605Z,24.90
2022-08-28T09:36:28.903Z,24.03
2022-08-28T09:46:32.552Z,24.07
2022-08-28T09:56:36.834Z,23.40
2022-08-28T10:06:39.124Z,20.27
2022-08-28T10:17:10.138Z,20.80
2022-08-28T10:27:42.409Z,14.00
2022-08-28T10:38:37.491Z,17.17
2022-08-28T10:48:54.721Z,14.37
2022-08-28T10:58:59.470Z,13.80
2022-08-28T11:09:06.582Z,12.40
2022-08-28T11:19:13.868Z,11.50
2022-08-28T11:29:52.826Z,9.77
2022-08-28T11:40:15.851Z,9.57
2022-08-28T11:50:32.120Z,10.07
2022-08-28T12:01:06.686Z,10.30
2022-08-28T12:11:08.247Z,12.07
2022-08-28T12:21:17.128Z,14.73
2022-08-28T12:31:24.554Z,14.33
2022-08-28T12:41:27.237Z,11.33
2022-08-28T12:51:34.072Z,10.37
2022-08-28T13:01:35.758Z,11.10
2022-08-28T13:11:39.835Z,9.77
2022-08-28T13:21:47.555Z,14.02
2022-08-28T13:32:07.020Z,10.70
2022-08-28T13:42:12.543Z,10.10
2022-08-28T13:52:14.495Z,9.23
2022-08-28T14:02:16.435Z,8.20
2022-08-28T14:12:17.973Z,8.02
2022-08-28T14:22:19.522Z,8.50
2022-08-28T14:32:21.075Z,9.60
2022-08-28T14:42:22.692Z,8.68
2022-08-28T14:52:24.202Z,9.33
2022-08-28T15:02:25.745Z,7.72
2022-08-28T15:12:27.273Z,9.10
2022-08-28T15:22:28.855Z,8.83
2022-08-28T15:32:30.428Z,6.65
2022-08-28T15:42:31.975Z,6.80
2022-08-28T15:52:33.577Z,8.52
2022-08-28T16:02:35.097Z,9.13
2022-08-28T16:12:36.658Z,6.10
2022-08-28T16:22:38.840Z,6.28
2022-08-28T16:32:40.447Z,5.40
2022-08-28T16:42:51.542Z,5.15
2022-08-28T16:52:53.656Z,5.93
2022-08-28T17:02:56.150Z,5.47
2022-08-28T17:12:57.975Z,5.32
2022-08-28T17:22:59.754Z,5.57
2022-08-28T17:33:01.340Z,8.85
2022-08-28T17:43:02.924Z,6.17
2022-08-28T17:53:04.437Z,6.13
2022-08-28T18:03:06.032Z,9.63
2022-08-28T18:13:07.683Z,6.30
2022-08-28T18:23:09.304Z,6.38
2022-08-28T18:33:13.252Z,8.60
2022-08-28T18:43:14.924Z,8.90
2022-08-28T18:53:19.314Z,7.65
2022-08-28T19:03:21.576Z,7.17
2022-08-28T19:13:23.161Z,8.77
2022-08-28T19:23:24.747Z,13.47
2022-08-28T19:33:26.252Z,9.40
2022-08-28T19:43:43.394Z,8.50
2022-08-28T19:53:46.426Z,8.73
2022-08-28T20:03:48.067Z,6.00
2022-08-28T20:13:52.675Z,6.23
2022-08-28T20:23:54.276Z,7.00
2022-08-28T20:33:57.010Z,8.63
2022-08-28T20:43:59.015Z,8.70
2022-08-28T20:54:00.609Z,9.80
2022-08-28T21:04:02.391Z,8.53
2022-08-28T21:14:04.048Z,7.23
2022-08-28T21:24:09.278Z,7.80
2022-08-28T21:34:11.511Z,12.67
2022-08-28T21:44:13.198Z,9.50
2022-08-28T21:54:14.758Z,9.10
2022-08-28T22:04:16.350Z,7.40
2022-08-28T22:14:18.820Z,10.45
2022-08-28T22:24:20.396Z,6.63
2022-08-28T22:34:23.483Z,8.93
2022-08-28T22:44:24.992Z,8.47
2022-08-28T22:54:26.651Z,6.10
2022-08-28T23:04:28.248Z,9.77
2022-08-28T23:14:29.860Z,11.70
2022-08-28T23:24:31.390Z,9.95
2022-08-28T23:34:33.432Z,8.93
2022-08-28T23:44:36.675Z,10.30
2022-08-28T23:54:38.952Z,7.53
